createdAt,value
2019-05-21T00:00:04.334Z,16.88
2019-05-21T00:02:54.479Z,16.85
2019-05-21T00:05:45.192Z,16.81
2019-05-21T00:08:35.036Z,16.77
2019-05-21T00:11:25.166Z,16.72
2019-05-21T00:14:15.051Z,16.68
2019-05-21T00:17:04.904Z,16.63
2019-05-21T00:19:54.734Z,16.60
2019-05-21T00:22:44.701Z,16.56
2019-05-21T00:25:34.723Z,16.53
2019-05-21T00:28:41.386Z,16.49
2019-05-21T00:32:25.466Z,16.47
2019-05-21T00:36:09.644Z,16.40
2019-05-21T00:39:53.817Z,16.27
2019-05-21T00:42:46.338Z,16.16
2019-05-21T00:45:36.195Z,16.05
2019-05-21T00:48:26.053Z,16.03
2019-05-21T00:51:15.922Z,16.01
2019-05-21T00:54:05.521Z,15.97
2019-05-21T00:56:55.374Z,15.95
2019-05-21T00:59:44.925Z,15.93
2019-05-21T01:02:35.053Z,15.91
2019-05-21T01:05:25.228Z,15.91
2019-05-21T01:08:15.519Z,15.88
2019-05-21T01:11:05.771Z,15.83
2019-05-21T01:13:55.801Z,15.77
2019-05-21T01:16:45.987Z,15.73
2019-05-21T01:19:36.117Z,15.68
2019-05-21T01:22:25.853Z,15.64
2019-05-21T01:25:16.110Z,15.62
2019-05-21T01:28:06.530Z,15.60
2019-05-21T01:30:56.426Z,15.59
2019-05-21T01:33:46.312Z,15.59
2019-05-21T01:36:36.413Z,15.61
2019-05-21T01:39:26.542Z,15.61
2019-05-21T01:42:16.403Z,15.61
2019-05-21T01:45:06.922Z,15.62
2019-05-21T01:47:56.658Z,15.61
2019-05-21T01:50:46.552Z,15.62
2019-05-21T01:53:36.695Z,15.62
2019-05-21T01:56:27.117Z,15.61
2019-05-21T01:59:17.329Z,15.59
2019-05-21T02:02:07.520Z,15.55
2019-05-21T02:04:57.398Z,15.56
2019-05-21T02:07:47.458Z,15.52
2019-05-21T02:10:37.562Z,15.48
2019-05-21T02:13:27.558Z,15.43
2019-05-21T02:16:17.568Z,15.41
2019-05-21T02:19:07.180Z,15.38
2019-05-21T02:21:57.583Z,15.37
2019-05-21T02:24:47.558Z,15.34
2019-05-21T02:27:37.319Z,15.32
2019-05-21T02:30:26.969Z,15.29
2019-05-21T02:33:16.882Z,15.26
2019-05-21T02:36:07.366Z,15.25
2019-05-21T02:38:57.024Z,15.23
2019-05-21T02:41:46.516Z,15.20
2019-05-21T02:44:36.845Z,15.17
2019-05-21T02:47:27.010Z,15.15
2019-05-21T02:50:17.245Z,15.10
2019-05-21T02:53:07.218Z,15.06
2019-05-21T02:55:57.271Z,15.01
2019-05-21T02:58:47.493Z,14.99
2019-05-21T03:01:43.474Z,14.97
2019-05-21T03:04:33.388Z,14.95
2019-05-21T03:07:25.692Z,14.92
2019-05-21T03:10:14.569Z,14.88
2019-05-21T03:13:04.496Z,14.84
2019-05-21T03:15:54.606Z,14.82
2019-05-21T03:18:44.836Z,14.78
2019-05-21T03:21:34.494Z,14.74
2019-05-21T03:24:25.533Z,14.71
2019-05-21T03:27:15.441Z,14.68
2019-05-21T03:30:05.373Z,14.66
2019-05-21T03:32:55.546Z,14.64
2019-05-21T03:35:45.697Z,14.63
2019-05-21T03:38:35.594Z,14.60
2019-05-21T03:41:25.097Z,14.59
2019-05-21T03:44:15.814Z,14.59
2019-05-21T03:47:05.859Z,14.58
2019-05-21T03:49:56.041Z,14.57
2019-05-21T03:52:46.052Z,14.58
2019-05-21T03:55:35.934Z,14.58
2019-05-21T03:58:25.551Z,14.58
2019-05-21T04:01:19.397Z,14.59
2019-05-21T04:04:18.672Z,14.61
2019-05-21T04:07:09.382Z,14.62
2019-05-21T04:09:59.267Z,14.65
2019-05-21T04:13:07.274Z,14.67
2019-05-21T04:16:22.384Z,14.69
2019-05-21T04:19:19.411Z,14.73
2019-05-21T04:22:16.787Z,14.77
2019-05-21T04:25:06.863Z,14.84
2019-05-21T04:27:56.484Z,14.90
2019-05-21T04:30:46.535Z,14.95
2019-05-21T04:33:36.485Z,15.01
2019-05-21T04:36:26.392Z,15.06
2019-05-21T04:39:17.332Z,15.15
2019-05-21T04:42:07.258Z,15.22
2019-05-21T04:44:57.465Z,15.30
2019-05-21T04:47:47.404Z,15.38
2019-05-21T04:50:36.836Z,15.47
2019-05-21T04:53:26.478Z,15.55
2019-05-21T04:56:16.362Z,15.64
2019-05-21T04:59:06.494Z,15.72
2019-05-21T05:01:56.408Z,15.83
2019-05-21T05:04:46.534Z,15.93
2019-05-21T05:07:36.365Z,16.05
2019-05-21T05:10:26.194Z,16.17
2019-05-21T05:13:17.566Z,16.31
2019-05-21T05:16:07.540Z,16.47
2019-05-21T05:18:57.367Z,16.60
2019-05-21T05:21:47.140Z,16.71
2019-05-21T05:24:37.356Z,16.84
2019-05-21T05:27:27.371Z,16.96
2019-05-21T05:30:18.158Z,17.06
2019-05-21T05:33:07.919Z,17.17
2019-05-21T05:35:58.194Z,17.24
2019-05-21T05:38:48.388Z,17.36
2019-05-21T05:41:38.352Z,17.49
2019-05-21T05:44:27.951Z,17.61
2019-05-21T05:47:18.034Z,17.70
2019-05-21T05:50:10.360Z,17.81
2019-05-21T05:53:00.375Z,17.84
2019-05-21T05:55:50.361Z,17.97
2019-05-21T05:58:40.461Z,18.06
2019-05-21T06:01:32.302Z,18.15
2019-05-21T06:04:22.492Z,18.27
2019-05-21T06:07:12.423Z,18.38
2019-05-21T06:10:02.539Z,18.50
2019-05-21T06:12:53.520Z,18.63
2019-05-21T06:15:43.282Z,18.76
2019-05-21T06:18:35.500Z,18.84
2019-05-21T06:21:24.730Z,18.94
2019-05-21T06:24:15.044Z,19.00
2019-05-21T06:27:07.726Z,19.07
2019-05-21T06:29:57.971Z,19.15
2019-05-21T06:32:47.873Z,19.28
2019-05-21T06:35:37.789Z,19.42
2019-05-21T06:38:27.757Z,19.52
2019-05-21T06:41:18.258Z,19.65
2019-05-21T06:44:08.503Z,19.77
2019-05-21T06:47:01.932Z,19.88
2019-05-21T06:49:51.525Z,19.96
2019-05-21T06:52:41.225Z,19.83
2019-05-21T06:55:31.024Z,20.11
2019-05-21T06:58:20.521Z,20.19
2019-05-21T07:01:10.627Z,20.28
2019-05-21T07:04:00.809Z,20.35
2019-05-21T07:06:51.387Z,20.38
2019-05-21T07:09:41.610Z,20.45
2019-05-21T07:12:31.530Z,20.52
2019-05-21T07:15:21.570Z,20.56
2019-05-21T07:18:12.793Z,20.60
2019-05-21T07:21:03.770Z,20.70
2019-05-21T07:23:53.805Z,20.77
2019-05-21T07:26:44.414Z,20.91
2019-05-21T07:29:46.182Z,20.99
2019-05-21T07:32:36.757Z,21.14
2019-05-21T07:35:26.676Z,21.29
2019-05-21T07:38:19.774Z,21.27
2019-05-21T07:41:09.378Z,21.30
2019-05-21T07:43:59.144Z,21.34
2019-05-21T07:46:49.871Z,21.47
2019-05-21T07:49:39.920Z,21.55
2019-05-21T07:52:30.520Z,21.54
2019-05-21T07:55:20.626Z,21.66
2019-05-21T07:58:10.417Z,21.75
2019-05-21T08:01:01.546Z,21.99
2019-05-21T08:03:53.536Z,22.29
2019-05-21T08:06:44.256Z,22.43
2019-05-21T08:09:34.160Z,22.41
2019-05-21T08:12:37.889Z,22.38
2019-05-21T08:15:16.828Z,22.46
2019-05-21T08:18:06.758Z,22.58
2019-05-21T08:20:56.295Z,22.75
2019-05-21T08:23:46.002Z,22.90
2019-05-21T08:26:35.838Z,23.07
2019-05-21T08:29:25.679Z,23.25
2019-05-21T08:32:15.675Z,23.55
2019-05-21T08:35:06.131Z,23.76
2019-05-21T08:37:55.913Z,23.85
2019-05-21T08:40:46.087Z,23.85
2019-05-21T08:43:36.354Z,23.84
2019-05-21T08:46:26.630Z,23.82
2019-05-21T08:49:16.987Z,23.74
2019-05-21T08:52:06.905Z,23.73
2019-05-21T08:54:56.815Z,23.69
2019-05-21T08:58:04.994Z,23.80
2019-05-21T09:00:39.026Z,23.89
2019-05-21T09:03:29.030Z,23.76
2019-05-21T09:06:19.231Z,23.72
2019-05-21T09:09:10.435Z,23.72
2019-05-21T09:12:00.489Z,23.71
2019-05-21T09:14:50.621Z,23.69
2019-05-21T09:17:40.637Z,23.67
2019-05-21T09:20:30.815Z,23.76
2019-05-21T09:23:20.671Z,24.04
2019-05-21T09:26:10.712Z,24.15
2019-05-21T09:29:00.737Z,24.34
2019-05-21T09:31:51.721Z,24.55
2019-05-21T09:34:48.580Z,24.50
2019-05-21T09:37:33.144Z,24.59
2019-05-21T09:40:25.439Z,24.54
2019-05-21T09:43:15.079Z,24.69
2019-05-21T09:46:05.598Z,24.73
2019-05-21T09:48:56.192Z,24.82
2019-05-21T09:51:46.610Z,24.89
2019-05-21T09:54:35.806Z,25.01
2019-05-21T09:57:34.937Z,25.12
2019-05-21T10:00:50.772Z,25.15
2019-05-21T10:03:42.954Z,25.28
2019-05-21T10:06:33.120Z,25.43
2019-05-21T10:09:23.619Z,25.49
2019-05-21T10:12:13.873Z,25.62
2019-05-21T10:15:04.395Z,25.60
2019-05-21T10:17:54.277Z,25.69
2019-05-21T10:20:44.511Z,26.04
2019-05-21T10:23:34.389Z,26.52
2019-05-21T10:26:25.802Z,27.37
2019-05-21T10:29:15.856Z,28.23
2019-05-21T10:32:05.396Z,29.16
2019-05-21T10:34:55.251Z,29.87
2019-05-21T10:37:54.479Z,30.54
2019-05-21T10:40:39.012Z,31.05
2019-05-21T10:43:29.078Z,31.34
2019-05-21T10:46:19.261Z,31.79
2019-05-21T10:49:09.469Z,32.12
2019-05-21T10:51:59.653Z,32.22
2019-05-21T10:54:49.895Z,32.30
2019-05-21T10:57:39.418Z,32.58
2019-05-21T11:00:30.170Z,33.05
2019-05-21T11:03:24.521Z,33.40
2019-05-21T11:06:14.715Z,33.61
2019-05-21T11:09:10.361Z,33.71
2019-05-21T11:12:00.683Z,33.93
2019-05-21T11:14:50.985Z,33.61
2019-05-21T11:17:53.607Z,33.32
2019-05-21T11:20:32.588Z,33.03
2019-05-21T11:23:23.501Z,32.71
2019-05-21T11:26:13.509Z,32.36
2019-05-21T11:29:03.590Z,32.45
2019-05-21T11:31:57.398Z,33.01
2019-05-21T11:34:45.627Z,33.27
2019-05-21T11:37:35.744Z,34.01
2019-05-21T11:40:26.578Z,34.69
2019-05-21T11:43:16.564Z,34.94
2019-05-21T11:46:06.914Z,35.45
2019-05-21T11:48:56.522Z,35.99
2019-05-21T11:51:46.478Z,36.36
2019-05-21T11:54:36.637Z,36.47
2019-05-21T11:57:26.215Z,36.05
2019-05-21T12:00:21.284Z,35.45
2019-05-21T12:03:09.181Z,35.38
2019-05-21T12:05:59.299Z,35.26
2019-05-21T12:08:56.712Z,34.90
2019-05-21T12:11:40.859Z,34.64
2019-05-21T12:14:31.438Z,34.12
2019-05-21T12:17:21.844Z,33.39
2019-05-21T12:20:14.186Z,32.71
2019-05-21T12:23:03.759Z,32.12
2019-05-21T12:25:53.951Z,31.70
2019-05-21T12:28:44.218Z,31.41
2019-05-21T12:31:34.408Z,31.10
2019-05-21T12:34:25.485Z,30.86
2019-05-21T12:37:15.556Z,30.44
2019-05-21T12:40:06.222Z,30.12
2019-05-21T12:42:56.384Z,29.77
2019-05-21T12:45:46.392Z,29.50
2019-05-21T12:48:36.261Z,29.28
2019-05-21T12:51:26.334Z,29.16
2019-05-21T12:54:16.526Z,29.05
2019-05-21T12:57:06.510Z,28.96
2019-05-21T12:59:57.086Z,28.91
2019-05-21T13:02:47.094Z,28.86
2019-05-21T13:05:36.788Z,28.84
2019-05-21T13:08:27.032Z,28.86
2019-05-21T13:11:17.273Z,28.82
2019-05-21T13:14:07.348Z,28.87
2019-05-21T13:16:57.152Z,28.86
2019-05-21T13:19:46.796Z,28.82
2019-05-21T13:22:36.670Z,28.86
2019-05-21T13:25:27.625Z,28.99
2019-05-21T13:28:17.386Z,29.23
2019-05-21T13:31:07.205Z,29.54
2019-05-21T13:33:58.111Z,29.77
2019-05-21T13:36:47.838Z,29.90
2019-05-21T13:39:49.336Z,29.88
2019-05-21T13:42:29.593Z,29.80
2019-05-21T13:45:20.997Z,29.71
2019-05-21T13:48:11.207Z,29.50
2019-05-21T13:51:01.385Z,29.32
2019-05-21T13:53:51.500Z,29.24
2019-05-21T13:56:42.038Z,29.21
2019-05-21T13:59:31.646Z,29.19
2019-05-21T14:02:21.473Z,29.14
2019-05-21T14:05:12.171Z,29.27
2019-05-21T14:08:01.849Z,29.39
2019-05-21T14:10:51.797Z,29.46
2019-05-21T14:13:42.308Z,29.43
2019-05-21T14:16:34.790Z,29.41
2019-05-21T14:19:24.262Z,29.32
2019-05-21T14:22:13.959Z,29.45
2019-05-21T14:25:04.269Z,29.48
2019-05-21T14:27:54.175Z,29.46
2019-05-21T14:30:44.495Z,29.37
2019-05-21T14:33:35.533Z,29.25
2019-05-21T14:36:25.628Z,29.14
2019-05-21T14:39:17.639Z,29.04
2019-05-21T14:42:07.431Z,28.92
2019-05-21T14:44:57.229Z,28.80
2019-05-21T14:47:47.156Z,28.55
2019-05-21T14:50:37.502Z,28.41
2019-05-21T14:53:27.658Z,28.35
2019-05-21T14:56:17.137Z,28.25
2019-05-21T14:59:07.350Z,28.09
2019-05-21T15:01:57.399Z,27.98
2019-05-21T15:04:47.577Z,27.91
2019-05-21T15:07:37.320Z,27.80
2019-05-21T15:10:27.147Z,27.71
2019-05-21T15:13:17.527Z,27.64
2019-05-21T15:16:08.006Z,27.57
2019-05-21T15:18:57.991Z,27.48
2019-05-21T15:21:52.064Z,27.37
2019-05-21T15:24:42.176Z,27.36
2019-05-21T15:27:32.080Z,27.27
2019-05-21T15:30:22.193Z,27.17
2019-05-21T15:33:11.984Z,27.10
2019-05-21T15:36:01.797Z,27.04
2019-05-21T15:38:51.545Z,27.03
2019-05-21T15:41:41.870Z,26.98
2019-05-21T15:44:32.189Z,26.86
2019-05-21T15:47:22.098Z,26.80
2019-05-21T15:50:12.202Z,26.65
2019-05-21T15:53:01.661Z,26.56
2019-05-21T15:55:51.726Z,26.46
2019-05-21T15:58:41.896Z,26.36
2019-05-21T16:01:31.371Z,26.31
2019-05-21T16:04:21.610Z,26.29
2019-05-21T16:07:11.383Z,26.27
2019-05-21T16:10:01.634Z,26.26
2019-05-21T16:12:54.338Z,26.21
2019-05-21T16:15:43.318Z,26.16
2019-05-21T16:18:33.319Z,26.11
2019-05-21T16:21:23.390Z,26.06
2019-05-21T16:24:13.501Z,26.02
2019-05-21T16:27:03.344Z,26.03
2019-05-21T16:29:53.058Z,25.96
2019-05-21T16:32:42.920Z,25.90
2019-05-21T16:35:33.536Z,25.86
2019-05-21T16:38:23.722Z,25.81
2019-05-21T16:41:13.543Z,25.75
2019-05-21T16:44:03.446Z,25.60
2019-05-21T16:46:52.989Z,25.51
2019-05-21T16:49:43.383Z,25.43
2019-05-21T16:52:32.722Z,25.29
2019-05-21T16:55:23.003Z,25.14
2019-05-21T16:58:13.310Z,25.05
2019-05-21T17:01:05.514Z,24.95
2019-05-21T17:03:59.785Z,24.80
2019-05-21T17:06:47.864Z,24.67
2019-05-21T17:09:38.119Z,24.54
2019-05-21T17:12:28.018Z,24.35
2019-05-21T17:15:17.727Z,24.22
2019-05-21T17:18:07.726Z,24.09
2019-05-21T17:20:57.806Z,23.96
2019-05-21T17:23:47.389Z,23.82
2019-05-21T17:26:37.726Z,23.71
2019-05-21T17:29:27.441Z,23.57
2019-05-21T17:32:17.987Z,23.48
2019-05-21T17:35:08.675Z,23.31
2019-05-21T17:37:57.856Z,23.19
2019-05-21T17:40:47.292Z,23.08
2019-05-21T17:43:36.990Z,22.97
2019-05-21T17:46:26.418Z,22.86
2019-05-21T17:49:16.440Z,22.74
2019-05-21T17:52:06.858Z,22.69
2019-05-21T17:54:57.719Z,22.58
2019-05-21T17:57:53.028Z,22.52
2019-05-21T18:00:54.135Z,22.45
2019-05-21T18:03:45.109Z,22.42
2019-05-21T18:06:34.711Z,22.38
2019-05-21T18:09:25.936Z,22.30
2019-05-21T18:12:31.183Z,22.26
2019-05-21T18:15:11.401Z,22.20
2019-05-21T18:18:02.709Z,22.15
2019-05-21T18:20:53.022Z,22.10
2019-05-21T18:23:42.733Z,22.02
2019-05-21T18:26:32.482Z,21.91
2019-05-21T18:29:22.801Z,21.83
2019-05-21T18:32:13.965Z,21.74
2019-05-21T18:35:04.765Z,21.69
2019-05-21T18:37:55.166Z,21.62
2019-05-21T18:40:45.954Z,21.57
2019-05-21T18:43:36.620Z,21.54
2019-05-21T18:46:26.152Z,21.47
2019-05-21T18:49:15.661Z,21.42
2019-05-21T18:52:06.211Z,21.33
2019-05-21T18:54:56.192Z,21.29
2019-05-21T18:57:46.070Z,21.23
2019-05-21T19:00:36.261Z,21.17
2019-05-21T19:03:26.307Z,21.10
2019-05-21T19:06:16.139Z,20.98
2019-05-21T19:09:07.623Z,20.95
2019-05-21T19:11:57.869Z,20.92
2019-05-21T19:14:47.877Z,20.91
2019-05-21T19:17:37.887Z,20.86
2019-05-21T19:20:27.753Z,20.83
2019-05-21T19:23:17.947Z,20.83
2019-05-21T19:26:08.297Z,20.80
2019-05-21T19:28:58.359Z,20.77
2019-05-21T19:31:49.424Z,20.75
2019-05-21T19:34:39.166Z,20.72
2019-05-21T19:37:29.396Z,20.66
2019-05-21T19:40:19.733Z,20.60
2019-05-21T19:43:09.891Z,20.57
2019-05-21T19:45:59.614Z,20.53
2019-05-21T19:48:50.175Z,20.48
2019-05-21T19:51:40.054Z,20.39
2019-05-21T19:54:29.888Z,20.37
2019-05-21T19:57:21.708Z,20.29
2019-05-21T20:00:13.080Z,20.26
2019-05-21T20:03:03.350Z,20.24
2019-05-21T20:05:53.496Z,20.22
2019-05-21T20:08:45.713Z,20.16
2019-05-21T20:11:35.412Z,20.11
2019-05-21T20:14:25.548Z,20.10
2019-05-21T20:17:16.279Z,20.02
2019-05-21T20:20:08.354Z,19.98
2019-05-21T20:22:59.071Z,19.97
2019-05-21T20:25:56.428Z,19.94
2019-05-21T20:28:42.380Z,19.87
2019-05-21T20:31:32.300Z,19.81
2019-05-21T20:34:23.847Z,19.78
2019-05-21T20:37:18.778Z,19.79
2019-05-21T20:40:10.812Z,19.77
2019-05-21T20:43:01.121Z,19.73
2019-05-21T20:45:51.785Z,19.75
2019-05-21T20:48:42.879Z,19.71
2019-05-21T20:51:34.150Z,19.69
2019-05-21T20:54:26.216Z,19.65
2019-05-21T20:57:17.758Z,19.63
2019-05-21T21:00:10.939Z,19.64
2019-05-21T21:03:02.297Z,19.64
2019-05-21T21:05:53.906Z,19.65
2019-05-21T21:08:46.864Z,19.62
2019-05-21T21:11:37.569Z,19.61
2019-05-21T21:14:28.710Z,19.63
2019-05-21T21:17:19.419Z,19.62
2019-05-21T21:20:10.707Z,19.62
2019-05-21T21:23:02.053Z,19.60
2019-05-21T21:25:52.681Z,19.55
2019-05-21T21:28:42.555Z,19.55
2019-05-21T21:31:32.698Z,19.55
2019-05-21T21:34:23.281Z,19.53
2019-05-21T21:37:13.744Z,19.51
2019-05-21T21:40:05.892Z,19.44
2019-05-21T21:42:55.813Z,19.42
2019-05-21T21:45:46.011Z,19.42
2019-05-21T21:48:36.300Z,19.43
2019-05-21T21:51:26.844Z,19.43
2019-05-21T21:54:17.084Z,19.41
2019-05-21T21:57:07.772Z,19.38
2019-05-21T21:59:57.945Z,19.39
2019-05-21T22:02:47.351Z,19.37
2019-05-21T22:05:38.008Z,19.39
2019-05-21T22:08:28.406Z,19.40
2019-05-21T22:11:18.281Z,19.42
2019-05-21T22:14:07.683Z,19.44
2019-05-21T22:16:57.916Z,19.47
2019-05-21T22:19:48.117Z,19.46
2019-05-21T22:22:37.503Z,19.43
2019-05-21T22:25:27.610Z,19.42
2019-05-21T22:28:18.324Z,19.39
2019-05-21T22:31:08.515Z,19.36
2019-05-21T22:33:58.532Z,19.33
2019-05-21T22:36:48.736Z,19.33
2019-05-21T22:39:40.035Z,19.31
2019-05-21T22:42:32.068Z,19.28
2019-05-21T22:45:22.909Z,19.26
2019-05-21T22:48:13.327Z,19.25
2019-05-21T22:51:04.468Z,19.24
2019-05-21T22:53:54.214Z,19.22
2019-05-21T22:56:44.224Z,19.20
2019-05-21T22:59:33.968Z,19.16
2019-05-21T23:02:28.014Z,19.11
2019-05-21T23:05:18.064Z,19.10
2019-05-21T23:08:08.761Z,19.08
2019-05-21T23:10:59.164Z,19.04
2019-05-21T23:13:49.257Z,19.03
2019-05-21T23:16:40.205Z,19.04
2019-05-21T23:19:31.821Z,18.99
2019-05-21T23:22:31.460Z,19.00
2019-05-21T23:25:22.339Z,18.96
2019-05-21T23:28:13.687Z,18.96
2019-05-21T23:31:05.374Z,18.96
2019-05-21T23:33:58.692Z,18.96
2019-05-21T23:36:51.602Z,18.96
2019-05-21T23:39:42.129Z,18.97
2019-05-21T23:42:33.381Z,18.97
2019-05-21T23:45:23.267Z,18.96
2019-05-21T23:48:14.440Z,18.96
2019-05-21T23:51:04.391Z,18.92
2019-05-21T23:53:55.173Z,18.86
2019-05-21T23:56:45.264Z,18.85
2019-05-21T23:59:35.927Z,18.77
